createdAt,value
2023-02-24T00:02:03.525Z,56.77
2023-02-24T00:04:34.822Z,45.90
2023-02-24T00:07:02.147Z,58.90
2023-02-24T00:09:31.045Z,50.13
2023-02-24T00:12:04.257Z,55.10
2023-02-24T00:14:37.328Z,49.93
2023-02-24T00:17:07.209Z,51.93
2023-02-24T00:19:34.222Z,48.30
2023-02-24T00:22:07.105Z,50.87
2023-02-24T00:24:34.799Z,53.20
2023-02-24T00:27:06.863Z,55.53
2023-02-24T00:29:33.919Z,52.10
2023-02-24T00:32:01.810Z,53.10
2023-02-24T00:34:32.794Z,50.10
2023-02-24T00:36:59.779Z,53.13
2023-02-24T00:39:32.571Z,52.07
2023-02-24T00:42:06.203Z,49.63
2023-02-24T00:44:40.772Z,50.30
2023-02-24T00:47:10.040Z,45.80
2023-02-24T00:49:41.513Z,57.50
2023-02-24T00:52:19.865Z,53.20
2023-02-24T00:54:49.039Z,39.60
2023-02-24T00:57:20.499Z,49.80
2023-02-24T00:59:47.063Z,47.03
2023-02-24T01:02:14.750Z,45.10
2023-02-24T01:04:43.499Z,46.57
2023-02-24T01:07:12.150Z,51.27
2023-02-24T01:09:41.069Z,50.03
2023-02-24T01:12:22.859Z,47.53
2023-02-24T01:14:52.144Z,44.97
2023-02-24T01:17:20.760Z,48.23
2023-02-24T01:19:48.861Z,52.03
2023-02-24T01:22:18.265Z,50.53
2023-02-24T01:24:45.589Z,57.13
2023-02-24T01:27:19.176Z,59.90
2023-02-24T01:29:47.650Z,53.97
2023-02-24T01:32:19.936Z,49.93
2023-02-24T01:34:50.673Z,55.97
2023-02-24T01:37:18.496Z,50.40
2023-02-24T01:39:45.635Z,49.83
2023-02-24T01:42:19.964Z,50.90
2023-02-24T01:45:14.804Z,48.87
2023-02-24T01:47:43.042Z,51.07
2023-02-24T01:50:14.420Z,49.93
2023-02-24T01:52:44.568Z,56.10
2023-02-24T01:55:28.457Z,42.70
2023-02-24T01:57:59.904Z,54.50
2023-02-24T02:00:44.310Z,56.30
2023-02-24T02:03:27.401Z,45.07
2023-02-24T02:06:07.356Z,43.40
2023-02-24T02:08:37.808Z,51.13
2023-02-24T02:11:10.077Z,46.27
2023-02-24T02:13:44.376Z,46.90
2023-02-24T02:16:46.622Z,44.90
2023-02-24T02:24:03.662Z,45.37
2023-02-24T02:30:43.723Z,47.00
2023-02-24T02:33:49.016Z,45.37
2023-02-24T02:37:25.088Z,49.83
2023-02-24T02:40:14.582Z,48.27
2023-02-24T02:44:08.652Z,51.57
2023-02-24T02:47:13.419Z,48.73
2023-02-24T02:49:51.568Z,47.37
2023-02-24T02:52:37.952Z,49.70
2023-02-24T02:55:23.092Z,47.77
2023-02-24T02:57:56.144Z,47.07
2023-02-24T03:00:34.366Z,43.60
2023-02-24T03:03:13.290Z,41.30
2023-02-24T03:05:56.339Z,45.30
2023-02-24T03:08:28.886Z,44.90
2023-02-24T03:11:01.355Z,44.77
2023-02-24T03:13:36.006Z,40.07
2023-02-24T03:16:05.613Z,45.07
2023-02-24T03:18:50.057Z,42.13
2023-02-24T03:21:46.092Z,40.93
2023-02-24T03:24:14.840Z,40.80
2023-02-24T03:27:56.105Z,44.00
2023-02-24T03:30:43.618Z,42.43
2023-02-24T03:33:30.024Z,43.60
2023-02-24T03:36:01.023Z,45.30
2023-02-24T03:38:32.367Z,44.20
2023-02-24T03:40:59.122Z,43.90
2023-02-24T03:43:32.310Z,42.73
2023-02-24T03:46:00.718Z,40.93
2023-02-24T03:48:28.380Z,45.73
2023-02-24T03:50:55.887Z,41.43
2023-02-24T03:54:03.077Z,42.27
2023-02-24T03:57:11.672Z,46.10
2023-02-24T04:00:24.968Z,38.77
2023-02-24T04:03:45.088Z,43.60
2023-02-24T04:06:50.778Z,43.47
2023-02-24T04:10:38.526Z,44.47
2023-02-24T04:13:34.507Z,42.40
2023-02-24T04:17:32.233Z,40.87
2023-02-24T04:20:15.447Z,46.57
2023-02-24T04:22:50.851Z,43.53
2023-02-24T04:25:23.869Z,44.13
2023-02-24T04:28:00.108Z,44.27
2023-02-24T04:30:33.591Z,60.97
2023-02-24T04:33:00.571Z,46.17
2023-02-24T04:35:27.625Z,43.47
2023-02-24T04:37:54.835Z,43.10
2023-02-24T04:40:22.674Z,39.73
2023-02-24T04:42:51.561Z,38.97
2023-02-24T04:45:31.038Z,48.33
2023-02-24T04:48:01.366Z,35.73
2023-02-24T04:50:36.203Z,37.53
2023-02-24T04:53:10.563Z,44.00
2023-02-24T04:55:47.769Z,45.70
2023-02-24T04:58:21.335Z,37.40
2023-02-24T05:00:54.964Z,38.70
2023-02-24T05:03:28.685Z,33.53
2023-02-24T05:05:59.874Z,46.53
2023-02-24T05:08:28.809Z,36.37
2023-02-24T05:10:57.738Z,38.90
2023-02-24T05:13:31.044Z,32.47
2023-02-24T05:16:08.450Z,35.40
2023-02-24T05:18:36.316Z,34.83
2023-02-24T05:21:35.014Z,33.83
2023-02-24T05:24:10.789Z,34.73
2023-02-24T05:26:40.922Z,40.50
2023-02-24T05:29:08.125Z,39.03
2023-02-24T05:31:36.209Z,33.80
2023-02-24T05:34:06.891Z,36.60
2023-02-24T05:36:39.519Z,40.43
2023-02-24T05:39:07.181Z,39.57
2023-02-24T05:41:38.018Z,40.77
2023-02-24T05:44:09.976Z,35.50
2023-02-24T05:46:41.628Z,33.57
2023-02-24T05:49:22.493Z,31.13
2023-02-24T05:51:53.856Z,32.87
2023-02-24T05:54:32.669Z,33.10
2023-02-24T05:57:11.091Z,37.50
2023-02-24T05:59:42.130Z,32.17
2023-02-24T06:02:13.219Z,31.27
2023-02-24T06:04:53.033Z,32.47
2023-02-24T06:07:24.033Z,34.50
2023-02-24T06:09:56.712Z,33.97
2023-02-24T06:12:27.949Z,34.73
2023-02-24T06:14:54.490Z,74.43
2023-02-24T06:17:22.161Z,71.40
2023-02-24T06:19:52.061Z,33.00
2023-02-24T06:22:22.644Z,31.43
2023-02-24T06:24:49.653Z,31.90
2023-02-24T06:27:18.977Z,36.30
2023-02-24T06:29:51.745Z,31.30
2023-02-24T06:32:23.510Z,39.33
2023-02-24T06:34:51.706Z,29.73
2023-02-24T06:37:18.378Z,31.30
2023-02-24T06:39:45.401Z,30.90
2023-02-24T06:42:13.005Z,32.83
2023-02-24T06:44:41.140Z,29.97
2023-02-24T06:47:13.445Z,28.77
2023-02-24T06:49:41.956Z,26.13
2023-02-24T06:52:10.188Z,35.83
2023-02-24T06:54:36.635Z,30.97
2023-02-24T06:57:03.775Z,30.23
2023-02-24T06:59:31.382Z,27.13
2023-02-24T07:02:01.038Z,28.37
2023-02-24T07:04:28.964Z,28.27
2023-02-24T07:07:02.179Z,29.63
2023-02-24T07:09:30.319Z,27.40
2023-02-24T07:11:57.996Z,30.83
2023-02-24T07:14:27.135Z,25.83
2023-02-24T07:16:54.066Z,26.57
2023-02-24T07:19:26.675Z,25.93
2023-02-24T07:21:59.250Z,26.80
2023-02-24T07:24:38.402Z,33.27
2023-02-24T07:27:22.645Z,29.20
2023-02-24T07:29:52.936Z,29.87
2023-02-24T07:32:24.665Z,26.83
2023-02-24T07:34:51.132Z,23.83
2023-02-24T07:37:19.615Z,26.50
2023-02-24T07:39:46.645Z,29.37
2023-02-24T07:42:13.128Z,29.10
2023-02-24T07:44:39.580Z,27.50
2023-02-24T07:47:07.448Z,33.13
2023-02-24T07:49:34.575Z,26.07
2023-02-24T07:52:01.203Z,27.10
2023-02-24T07:54:29.209Z,33.80
2023-02-24T07:56:58.264Z,31.77
2023-02-24T07:59:36.818Z,36.73
2023-02-24T08:02:06.796Z,30.40
2023-02-24T08:04:35.517Z,33.40
2023-02-24T08:07:03.710Z,26.63
2023-02-24T08:09:45.703Z,31.07
2023-02-24T08:12:20.387Z,30.40
2023-02-24T08:14:51.434Z,30.80
2023-02-24T08:17:26.876Z,32.53
2023-02-24T08:20:13.468Z,29.70
2023-02-24T08:22:51.265Z,40.80
2023-02-24T08:25:21.887Z,33.87
2023-02-24T08:28:06.452Z,33.50
2023-02-24T08:30:39.389Z,32.53
2023-02-24T08:33:17.022Z,31.47
2023-02-24T08:35:44.125Z,33.57
2023-02-24T08:38:17.971Z,37.30
2023-02-24T08:40:54.095Z,30.37
2023-02-24T08:43:34.446Z,27.43
2023-02-24T08:47:04.408Z,41.43
2023-02-24T08:49:32.539Z,30.17
2023-02-24T08:52:01.557Z,29.50
2023-02-24T08:54:31.167Z,38.27
2023-02-24T08:57:07.340Z,29.17
2023-02-24T08:59:48.885Z,32.97
2023-02-24T09:02:26.454Z,29.60
2023-02-24T09:05:28.102Z,31.87
2023-02-24T09:07:55.346Z,34.43
2023-02-24T09:10:22.294Z,31.87
2023-02-24T09:12:48.838Z,31.80
2023-02-24T09:15:15.706Z,28.87
2023-02-24T09:17:44.679Z,31.57
2023-02-24T09:20:26.955Z,28.07
2023-02-24T09:23:06.572Z,29.73
2023-02-24T09:25:43.998Z,30.03
2023-02-24T09:28:18.352Z,26.43
2023-02-24T09:30:57.864Z,28.93
2023-02-24T09:33:40.877Z,37.17
2023-02-24T09:36:19.327Z,28.70
2023-02-24T09:39:01.349Z,32.30
2023-02-24T09:41:52.991Z,29.87
2023-02-24T09:44:41.056Z,35.43
2023-02-24T09:47:39.481Z,36.10
2023-02-24T09:51:01.708Z,32.93
2023-02-24T09:53:41.093Z,25.33
2023-02-24T09:56:31.936Z,28.83
2023-02-24T09:59:29.266Z,24.27
2023-02-24T10:02:41.252Z,23.53
2023-02-24T10:06:11.341Z,28.03
2023-02-24T10:08:45.672Z,25.07
2023-02-24T10:11:14.013Z,26.10
2023-02-24T10:14:03.427Z,21.33
2023-02-24T10:16:40.721Z,23.03
2023-02-24T10:22:02.607Z,27.27
2023-02-24T10:24:47.984Z,34.27
2023-02-24T10:28:24.758Z,25.63
2023-02-24T10:31:25.451Z,23.23
2023-02-24T10:34:24.567Z,29.27
2023-02-24T10:36:52.229Z,29.23
2023-02-24T10:39:27.647Z,25.73
2023-02-24T10:42:16.725Z,34.80
2023-02-24T10:45:01.276Z,39.90
2023-02-24T10:47:30.410Z,30.40
2023-02-24T10:50:11.904Z,23.43
2023-02-24T10:52:50.309Z,28.40
2023-02-24T10:55:52.826Z,30.63
2023-02-24T10:58:44.012Z,34.20
2023-02-24T11:01:48.621Z,27.27
2023-02-24T11:04:32.793Z,22.53
2023-02-24T11:07:24.261Z,26.73
2023-02-24T11:10:25.287Z,22.20
2023-02-24T11:13:13.015Z,29.63
2023-02-24T11:16:13.024Z,29.83
2023-02-24T11:18:49.182Z,29.93
2023-02-24T11:21:17.210Z,27.30
2023-02-24T11:23:54.808Z,30.93
2023-02-24T11:26:37.744Z,34.17
2023-02-24T11:31:13.718Z,25.30
2023-02-24T11:34:41.240Z,36.27
2023-02-24T11:37:38.289Z,33.87
2023-02-24T11:41:09.467Z,33.23
2023-02-24T11:43:42.505Z,23.43
2023-02-24T11:46:25.238Z,24.40
2023-02-24T11:48:57.795Z,30.17
2023-02-24T11:51:32.116Z,24.27
2023-02-24T11:54:10.701Z,28.20
2023-02-24T11:56:47.636Z,20.80
2023-02-24T11:59:36.213Z,23.37
2023-02-24T12:04:19.531Z,29.75
2023-02-24T12:07:29.258Z,33.92
2023-02-24T12:11:40.886Z,24.87
2023-02-24T12:14:27.693Z,45.70
2023-02-24T12:17:57.167Z,30.27
2023-02-24T12:21:00.119Z,40.33
2023-02-24T12:23:40.415Z,35.63
2023-02-24T12:27:48.388Z,45.67
2023-02-24T12:30:47.958Z,30.50
2023-02-24T12:33:48.469Z,33.93
2023-02-24T12:37:19.139Z,33.13
2023-02-24T12:40:22.656Z,35.70
2023-02-24T12:46:14.122Z,29.10
2023-02-24T12:53:50.362Z,30.67
2023-02-24T12:56:27.069Z,33.00
2023-02-24T12:59:04.636Z,34.42
2023-02-24T13:01:52.431Z,33.40
2023-02-24T13:04:42.841Z,31.77
2023-02-24T13:07:41.352Z,31.58
2023-02-24T13:12:26.414Z,31.35
2023-02-24T13:14:53.253Z,39.03
2023-02-24T13:17:26.169Z,29.80
2023-02-24T13:19:55.058Z,30.55
2023-02-24T13:22:29.114Z,26.70
2023-02-24T13:25:18.463Z,31.08
2023-02-24T13:28:03.235Z,32.70
2023-02-24T13:30:41.739Z,30.95
2023-02-24T13:33:28.606Z,38.13
2023-02-24T13:36:21.200Z,34.15
2023-02-24T13:39:06.310Z,32.47
2023-02-24T13:41:40.018Z,32.95
2023-02-24T13:44:28.137Z,33.65
2023-02-24T13:51:58.881Z,34.13
2023-02-24T13:55:54.781Z,31.90
2023-02-24T14:00:38.537Z,33.70
2023-02-24T14:03:26.088Z,35.13
2023-02-24T14:05:54.479Z,35.90
2023-02-24T14:08:39.523Z,35.93
2023-02-24T14:11:11.617Z,37.47
2023-02-24T14:13:39.140Z,32.83
2023-02-24T14:16:09.194Z,35.95
2023-02-24T14:18:36.583Z,37.23
2023-02-24T14:21:03.760Z,36.70
2023-02-24T14:23:33.877Z,35.20
2023-02-24T14:26:11.250Z,34.47
2023-02-24T14:28:41.263Z,37.07
2023-02-24T14:31:13.801Z,34.23
2023-02-24T14:33:44.077Z,38.97
2023-02-24T14:36:41.931Z,34.97
2023-02-24T14:39:16.681Z,36.57
2023-02-24T14:41:44.353Z,38.03
2023-02-24T14:44:29.645Z,44.10
2023-02-24T14:47:05.727Z,39.73
2023-02-24T14:49:35.495Z,43.03
2023-02-24T14:53:51.990Z,42.07
2023-02-24T14:56:23.018Z,39.97
2023-02-24T14:59:08.022Z,37.80
2023-02-24T15:01:42.851Z,37.73
2023-02-24T15:06:39.904Z,41.83
2023-02-24T15:09:24.851Z,38.47
2023-02-24T15:11:54.882Z,39.40
2023-02-24T15:14:27.501Z,38.90
2023-02-24T15:17:09.322Z,39.97
2023-02-24T15:19:44.966Z,37.60
2023-02-24T15:22:33.821Z,40.20
2023-02-24T15:25:41.909Z,41.47
2023-02-24T15:28:31.903Z,44.77
2023-02-24T15:31:19.146Z,41.60
2023-02-24T15:33:59.259Z,34.93
2023-02-24T15:36:33.266Z,36.77
2023-02-24T15:39:15.577Z,34.50
2023-02-24T15:41:46.364Z,39.60
2023-02-24T15:44:33.188Z,43.57
2023-02-24T15:47:25.609Z,44.73
2023-02-24T15:49:52.133Z,34.40
2023-02-24T15:52:28.810Z,38.27
2023-02-24T15:54:57.153Z,41.30
2023-02-24T15:57:24.326Z,52.43
2023-02-24T15:59:51.152Z,37.50
2023-02-24T16:02:21.428Z,44.40
2023-02-24T16:04:49.977Z,43.00
2023-02-24T16:07:22.029Z,47.03
2023-02-24T16:09:53.798Z,42.73
2023-02-24T16:12:31.340Z,45.00
2023-02-24T16:15:02.274Z,44.37
2023-02-24T16:17:42.342Z,41.70
2023-02-24T16:20:26.465Z,35.23
2023-02-24T16:23:04.445Z,40.30
2023-02-24T16:25:43.560Z,33.83
2023-02-24T16:28:20.002Z,43.00
2023-02-24T16:30:49.383Z,34.47
2023-02-24T16:33:18.538Z,39.20
2023-02-24T16:35:45.393Z,46.00
2023-02-24T16:38:20.499Z,43.43
2023-02-24T16:40:49.452Z,37.67
2023-02-24T16:43:16.309Z,39.13
2023-02-24T16:45:45.141Z,35.63
2023-02-24T16:48:36.375Z,34.67
2023-02-24T16:51:07.536Z,37.47
2023-02-24T16:53:34.662Z,36.23
2023-02-24T16:56:01.244Z,40.33
2023-02-24T16:58:27.917Z,39.90
2023-02-24T17:00:59.606Z,37.17
2023-02-24T17:03:32.911Z,35.77
2023-02-24T17:05:59.587Z,37.43
2023-02-24T17:08:26.203Z,31.97
2023-02-24T17:10:53.003Z,41.00
2023-02-24T17:13:21.492Z,39.40
2023-02-24T17:15:54.387Z,42.77
2023-02-24T17:18:23.298Z,38.03
2023-02-24T17:20:50.182Z,40.70
2023-02-24T17:23:16.710Z,42.47
2023-02-24T17:25:44.056Z,33.20
2023-02-24T17:28:11.093Z,34.43
2023-02-24T17:30:38.678Z,39.47
2023-02-24T17:33:06.335Z,42.47
2023-02-24T17:35:32.877Z,45.30
2023-02-24T17:37:59.332Z,36.77
2023-02-24T17:40:25.857Z,41.90
2023-02-24T17:42:52.353Z,37.17
2023-02-24T17:45:19.161Z,42.70
2023-02-24T17:47:45.753Z,33.77
2023-02-24T17:50:13.088Z,36.17
2023-02-24T17:52:40.150Z,33.13
2023-02-24T17:55:08.075Z,35.80
2023-02-24T17:57:35.945Z,33.67
2023-02-24T18:00:04.141Z,42.57
2023-02-24T18:02:30.817Z,42.87
2023-02-24T18:04:57.349Z,40.97
2023-02-24T18:07:24.524Z,41.97
2023-02-24T18:09:51.731Z,38.10
2023-02-24T18:12:20.083Z,36.93
2023-02-24T18:14:56.166Z,40.13
2023-02-24T18:17:29.122Z,49.80
2023-02-24T18:19:55.673Z,39.73
2023-02-24T18:22:22.745Z,42.10
2023-02-24T18:24:49.378Z,44.73
2023-02-24T18:27:16.120Z,41.13
2023-02-24T18:29:43.130Z,41.27
2023-02-24T18:32:10.227Z,50.37
2023-02-24T18:34:36.972Z,41.33
2023-02-24T18:37:03.497Z,44.10
2023-02-24T18:39:30.106Z,43.87
2023-02-24T18:41:59.312Z,41.13
2023-02-24T18:44:26.048Z,43.67
2023-02-24T18:46:52.572Z,32.53
2023-02-24T18:49:19.080Z,36.93
2023-02-24T18:51:47.908Z,40.53
2023-02-24T18:54:14.912Z,44.33
2023-02-24T18:56:41.481Z,38.30
2023-02-24T18:59:07.970Z,36.97
2023-02-24T19:01:38.187Z,35.50
2023-02-24T19:04:07.140Z,36.80
2023-02-24T19:06:35.678Z,40.00
2023-02-24T19:09:11.370Z,40.70
2023-02-24T19:11:40.248Z,40.93
2023-02-24T19:14:07.265Z,36.90
2023-02-24T19:16:34.143Z,37.37
2023-02-24T19:19:00.709Z,53.67
2023-02-24T19:21:30.427Z,42.20
2023-02-24T19:24:03.076Z,38.87
2023-02-24T19:26:29.848Z,43.87
2023-02-24T19:28:58.045Z,36.77
2023-02-24T19:31:29.139Z,47.20
2023-02-24T19:34:02.395Z,48.13
2023-02-24T19:36:31.600Z,37.20
2023-02-24T19:38:58.084Z,41.20
2023-02-24T19:41:24.760Z,35.70
2023-02-24T19:43:51.590Z,40.43
2023-02-24T19:46:19.242Z,37.00
2023-02-24T19:48:45.884Z,40.27
2023-02-24T19:51:22.083Z,38.27
2023-02-24T19:53:52.936Z,29.57
2023-02-24T19:56:31.395Z,32.83
2023-02-24T19:59:00.228Z,39.23
2023-02-24T20:01:29.455Z,36.87
2023-02-24T20:03:59.181Z,38.77
2023-02-24T20:06:35.426Z,35.83
2023-02-24T20:09:08.596Z,40.17
2023-02-24T20:11:37.553Z,34.13
2023-02-24T20:14:06.034Z,35.03
2023-02-24T20:16:33.974Z,29.87
2023-02-24T20:19:01.858Z,28.87
2023-02-24T20:21:28.562Z,34.47
2023-02-24T20:23:57.800Z,31.83
2023-02-24T20:26:24.526Z,33.73
2023-02-24T20:28:51.107Z,35.67
2023-02-24T20:31:18.980Z,28.00
2023-02-24T20:33:48.829Z,25.77
2023-02-24T20:36:20.610Z,33.17
2023-02-24T20:38:47.553Z,42.87
2023-02-24T20:41:14.214Z,39.03
2023-02-24T20:43:40.696Z,30.10
2023-02-24T20:46:23.599Z,37.97
2023-02-24T20:48:58.597Z,33.70
2023-02-24T20:51:27.403Z,35.70
2023-02-24T20:53:58.295Z,33.57
2023-02-24T20:56:28.140Z,39.80
2023-02-24T20:59:12.987Z,33.03
2023-02-24T21:01:40.239Z,25.13
2023-02-24T21:04:08.048Z,37.60
2023-02-24T21:06:36.159Z,20.83
2023-02-24T21:09:03.185Z,30.27
2023-02-24T21:11:30.902Z,27.17
2023-02-24T21:13:57.910Z,33.27
2023-02-24T21:16:26.432Z,24.37
2023-02-24T21:18:55.040Z,23.93
2023-02-24T21:21:21.768Z,28.53
2023-02-24T21:23:48.711Z,32.23
2023-02-24T21:26:15.548Z,29.43
2023-02-24T21:28:42.046Z,37.10
2023-02-24T21:31:16.186Z,34.10
2023-02-24T21:33:43.124Z,37.87
2023-02-24T21:36:14.164Z,40.57
2023-02-24T21:38:41.468Z,37.90
2023-02-24T21:41:13.977Z,38.53
2023-02-24T21:43:41.901Z,33.03
2023-02-24T21:46:08.633Z,33.20
2023-02-24T21:48:35.211Z,28.23
2023-02-24T21:51:05.155Z,32.53
2023-02-24T21:53:34.589Z,28.40
2023-02-24T21:56:15.464Z,22.03
2023-02-24T21:58:49.068Z,23.87
2023-02-24T22:01:22.598Z,32.93
2023-02-24T22:03:51.889Z,32.13
2023-02-24T22:06:18.404Z,34.93
2023-02-24T22:08:44.859Z,33.63
2023-02-24T22:11:15.098Z,27.73
2023-02-24T22:13:43.644Z,29.50
2023-02-24T22:16:14.625Z,25.97
2023-02-24T22:18:41.346Z,28.20
2023-02-24T22:21:11.254Z,27.37
2023-02-24T22:23:38.117Z,25.50
2023-02-24T22:26:07.612Z,28.23
2023-02-24T22:28:37.467Z,31.70
2023-02-24T22:31:10.205Z,33.23
2023-02-24T22:33:40.427Z,37.43
2023-02-24T22:36:30.126Z,27.43
2023-02-24T22:38:59.312Z,23.10
2023-02-24T22:41:33.042Z,31.73
2023-02-24T22:44:02.046Z,27.10
2023-02-24T22:46:32.814Z,26.97
2023-02-24T22:48:59.697Z,27.57
2023-02-24T22:51:26.904Z,27.90
2023-02-24T22:53:54.634Z,27.03
2023-02-24T22:56:25.782Z,27.17
2023-02-24T22:58:52.837Z,20.47
2023-02-24T23:01:32.778Z,27.13
2023-02-24T23:04:06.178Z,24.93
2023-02-24T23:06:35.164Z,25.47
2023-02-24T23:09:03.154Z,35.43
2023-02-24T23:11:37.955Z,36.73
2023-02-24T23:14:09.111Z,31.23
2023-02-24T23:16:37.887Z,30.00
2023-02-24T23:19:12.159Z,28.63
2023-02-24T23:21:43.403Z,43.47
2023-02-24T23:24:13.082Z,25.43
2023-02-24T23:26:47.473Z,34.97
2023-02-24T23:29:17.509Z,31.70
2023-02-24T23:31:45.088Z,27.27
2023-02-24T23:34:12.597Z,36.83
2023-02-24T23:36:43.935Z,23.80
2023-02-24T23:39:14.304Z,24.57
2023-02-24T23:41:41.243Z,27.57
2023-02-24T23:44:09.127Z,24.80
2023-02-24T23:46:36.702Z,32.90
2023-02-24T23:49:04.559Z,30.23
2023-02-24T23:51:47.032Z,23.77
2023-02-24T23:54:18.508Z,22.90
2023-02-24T23:56:45.649Z,29.90
2023-02-24T23:59:12.093Z,34.37
